Priština, Kosovo

11:57 PM CEST on julij 03, 2015 (GMT +0200)
Velania | | Change Station
CLOSE
Current Station
Osebne vremenske postaje
Location: Prishtina, KOSOVO
Višina: 2192 ft
Nearby Weather Stations

Viš 2192 ft 42.66 °N, 21.18 °E | Updated 14 seconds ago

Mostly Cloudy
Pretezno oblacno
65.5 °F
Feels Like 65.5 °F
N
3.8
Veter Spremenljivo Veter od SV
Gusts 4.5 mph

Danes
High -- | Low -- °F
--% Chance of Precip.
Yesterday
High -- | Low -- °F
Precip. -- v
5:02 AM 8:16 PM
Pojemajoča luna, 96% visible
Zračni tlak 30.27 v
Vidljivost 6.2 milje
Oblaki Few 8600 ft
Pretezno oblacno 10000 ft
Rosišče 55 °F
Vlažnost 68%
Padavine 0.00 v
Snow Depth Not available.
UV 0.0 out of 12
Pollen Not available.
Air Quality Not available.
Flu Activity Not available.
METAR LWSK 032200Z 04004KT 9999 FEW086 BKN100 23/13 Q1025 NOSIG

More Conditions Fewer Conditions

Zračni tlak 30.27 v
Vidljivost 6.2 milje
Oblaki Few 8600 ft
Pretezno oblacno 10000 ft
Rosišče 55 °F
Vlažnost 68%
Padavine 0.00 v
Snow Depth Not available.
UV 0.0 out of 12
Pollen Not available.
Air Quality Not available.
Flu Activity Not available.
METAR LWSK 032200Z 04004KT 9999 FEW086 BKN100 23/13 Q1025 NOSIG

More Conditions Fewer Conditions

10-Day Weather Forecast

×

Almanac

Astronomija

Jul. 03, 2015 Rise Set
Actual Time
Civil Twilight
Nautical Twilight
Astronomical Twilight
Moon
Length Of Visible Light
Dolžina dneva
Tomorrow will be .
, % of the Moon is Illuminated

Današnji ekstremi

Country Highs Country Lows

Community

WunderPhotos

Upload Photos

1,834,782 photos uploaded!

WunderBlogs® & News

Nearby

Air Quality

  Air Quality AQ Index Pollutant
Not available.

Snow Depth

Station Depth Višina

Earthquake Activity

City Distance Mag. Time & Date
Minimum magnitude displayed is 2.5.

Coastal Water Temperatures

Mesto Temperatura

Stations

Nearby Weather Stations

Station Location Temp Občutek zaradi vetra Rosišče Vlažnost Veter Precip. Viš Obnovljeno Type